sensor_id;sensor_type;location;lat;lon;timestamp;temperature;humidity
31639;DHT22;18248;51.522;7.020;2024-02-16T00:00:17;14.20;99.90
31639;DHT22;18248;51.522;7.020;2024-02-16T00:03:16;14.20;99.90
31639;DHT22;18248;51.522;7.020;2024-02-16T00:06:15;14.20;99.90
31639;DHT22;18248;51.522;7.020;2024-02-16T00:09:13;14.10;99.90
31639;DHT22;18248;51.522;7.020;2024-02-16T00:12:12;14.10;99.90
31639;DHT22;18248;51.522;7.020;2024-02-16T00:15:13;14.20;99.90
31639;DHT22;18248;51.522;7.020;2024-02-16T00:18:11;14.10;99.90
31639;DHT22;18248;51.522;7.020;2024-02-16T00:21:11;14.20;99.90
31639;DHT22;18248;51.522;7.020;2024-02-16T00:24:10;14.10;99.90
31639;DHT22;18248;51.522;7.020;2024-02-16T00:27:08;14.20;99.90
31639;DHT22;18248;51.522;7.020;2024-02-16T00:30:07;14.20;99.90
31639;DHT22;18248;51.522;7.020;2024-02-16T00:33:08;14.20;99.90
31639;DHT22;18248;51.522;7.020;2024-02-16T00:36:07;14.30;99.90
31639;DHT22;18248;51.522;7.020;2024-02-16T00:39:05;14.20;99.90
31639;DHT22;18248;51.522;7.020;2024-02-16T00:42:04;14.30;99.90
31639;DHT22;18248;51.522;7.020;2024-02-16T00:45:03;14.30;99.90
31639;DHT22;18248;51.522;7.020;2024-02-16T00:48:05;14.30;99.90
31639;DHT22;18248;51.522;7.020;2024-02-16T00:51:04;14.30;99.90
31639;DHT22;18248;51.522;7.020;2024-02-16T00:54:03;14.30;99.90
31639;DHT22;18248;51.522;7.020;2024-02-16T00:57:02;14.30;99.90
31639;DHT22;18248;51.522;7.020;2024-02-16T01:00:01;14.40;99.90
31639;DHT22;18248;51.522;7.020;2024-02-16T01:03:01;14.30;99.90
31639;DHT22;18248;51.522;7.020;2024-02-16T01:06:00;14.30;99.90
31639;DHT22;18248;51.522;7.020;2024-02-16T01:08:58;14.30;99.90
31639;DHT22;18248;51.522;7.020;2024-02-16T01:11:57;14.30;99.90
31639;DHT22;18248;51.522;7.020;2024-02-16T01:14:55;14.30;99.90
31639;DHT22;18248;51.522;7.020;2024-02-16T01:17:54;14.20;99.90
31639;DHT22;18248;51.522;7.020;2024-02-16T01:20:52;14.20;99.90
31639;DHT22;18248;51.522;7.020;2024-02-16T01:23:51;14.30;99.90
31639;DHT22;18248;51.522;7.020;2024-02-16T01:26:49;14.20;99.90
31639;DHT22;18248;51.522;7.020;2024-02-16T01:29:48;14.10;99.90
31639;DHT22;18248;51.522;7.020;2024-02-16T01:32:47;14.10;99.90
31639;DHT22;18248;51.522;7.020;2024-02-16T01:35:45;14.10;99.90
31639;DHT22;18248;51.522;7.020;2024-02-16T01:38:44;14.10;99.90
31639;DHT22;18248;51.522;7.020;2024-02-16T01:41:43;14.20;99.90
31639;DHT22;18248;51.522;7.020;2024-02-16T01:44:41;14.20;99.90
31639;DHT22;18248;51.522;7.020;2024-02-16T01:47:41;14.20;99.90
31639;DHT22;18248;51.522;7.020;2024-02-16T01:50:45;14.20;99.90
31639;DHT22;18248;51.522;7.020;2024-02-16T01:53:44;14.20;99.90
31639;DHT22;18248;51.522;7.020;2024-02-16T01:56:44;14.20;99.90
31639;DHT22;18248;51.522;7.020;2024-02-16T01:59:43;14.20;99.90
31639;DHT22;18248;51.522;7.020;2024-02-16T02:02:44;14.20;99.90
31639;DHT22;18248;51.522;7.020;2024-02-16T02:05:44;14.20;99.90
31639;DHT22;18248;51.522;7.020;2024-02-16T02:08:44;14.20;99.90
31639;DHT22;18248;51.522;7.020;2024-02-16T02:11:42;14.20;99.90
31639;DHT22;18248;51.522;7.020;2024-02-16T02:14:41;14.30;99.90
31639;DHT22;18248;51.522;7.020;2024-02-16T02:17:40;14.30;99.90
31639;DHT22;18248;51.522;7.020;2024-02-16T02:20:38;14.20;99.90
31639;DHT22;18248;51.522;7.020;2024-02-16T02:23:37;14.30;99.90
31639;DHT22;18248;51.522;7.020;2024-02-16T02:26:37;14.20;99.90
31639;DHT22;18248;51.522;7.020;2024-02-16T02:29:36;14.20;99.90
31639;DHT22;18248;51.522;7.020;2024-02-16T02:32:34;14.20;99.90
31639;DHT22;18248;51.522;7.020;2024-02-16T02:35:33;14.20;99.90
31639;DHT22;18248;51.522;7.020;2024-02-16T02:38:31;14.20;99.90
31639;DHT22;18248;51.522;7.020;2024-02-16T02:41:31;14.10;99.90
31639;DHT22;18248;51.522;7.020;2024-02-16T02:44:31;14.10;99.90
31639;DHT22;18248;51.522;7.020;2024-02-16T02:47:30;14.10;99.90
31639;DHT22;18248;51.522;7.020;2024-02-16T02:50:28;14.10;99.90
31639;DHT22;18248;51.522;7.020;2024-02-16T02:53:30;14.10;99.90
31639;DHT22;18248;51.522;7.020;2024-02-16T02:56:28;14.10;99.90
31639;DHT22;18248;51.522;7.020;2024-02-16T02:59:27;14.10;99.90
31639;DHT22;18248;51.522;7.020;2024-02-16T03:02:25;14.10;99.90
31639;DHT22;18248;51.522;7.020;2024-02-16T03:05:25;14.10;99.90
31639;DHT22;18248;51.522;7.020;2024-02-16T03:08:23;14.10;99.90
31639;DHT22;18248;51.522;7.020;2024-02-16T03:11:22;14.10;99.90
31639;DHT22;18248;51.522;7.020;2024-02-16T03:14:20;14.10;99.90
31639;DHT22;18248;51.522;7.020;2024-02-16T03:17:19;14.10;99.90
31639;DHT22;18248;51.522;7.020;2024-02-16T03:20:17;14.00;99.90
31639;DHT22;18248;51.522;7.020;2024-02-16T03:23:16;14.10;99.90
31639;DHT22;18248;51.522;7.020;2024-02-16T03:26:19;14.00;99.90
31639;DHT22;18248;51.522;7.020;2024-02-16T03:29:18;14.00;99.90
31639;DHT22;18248;51.522;7.020;2024-02-16T03:32:17;14.00;99.90
31639;DHT22;18248;51.522;7.020;2024-02-16T03:35:15;13.90;99.90
31639;DHT22;18248;51.522;7.020;2024-02-16T03:38:14;13.90;99.90
31639;DHT22;18248;51.522;7.020;2024-02-16T03:41:13;13.90;99.90
31639;DHT22;18248;51.522;7.020;2024-02-16T03:44:12;13.90;99.90
31639;DHT22;18248;51.522;7.020;2024-02-16T03:47:11;13.90;99.90
31639;DHT22;18248;51.522;7.020;2024-02-16T03:50:10;13.90;99.90
31639;DHT22;18248;51.522;7.020;2024-02-16T03:53:11;13.80;99.90
31639;DHT22;18248;51.522;7.020;2024-02-16T03:56:09;13.80;99.90
31639;DHT22;18248;51.522;7.020;2024-02-16T03:59:08;13.80;99.90
31639;DHT22;18248;51.522;7.020;2024-02-16T04:02:08;13.80;99.90
31639;DHT22;18248;51.522;7.020;2024-02-16T04:05:08;13.70;99.90
31639;DHT22;18248;51.522;7.020;2024-02-16T04:08:07;13.80;99.90
31639;DHT22;18248;51.522;7.020;2024-02-16T04:11:05;13.70;99.90
31639;DHT22;18248;51.522;7.020;2024-02-16T04:14:04;13.70;99.90
31639;DHT22;18248;51.522;7.020;2024-02-16T04:17:03;13.80;99.90
31639;DHT22;18248;51.522;7.020;2024-02-16T04:20:02;13.80;99.90
31639;DHT22;18248;51.522;7.020;2024-02-16T04:23:01;13.80;99.90
31639;DHT22;18248;51.522;7.020;2024-02-16T04:26:00;13.80;99.90
31639;DHT22;18248;51.522;7.020;2024-02-16T04:28:58;13.80;99.90
31639;DHT22;18248;51.522;7.020;2024-02-16T04:31:56;13.90;99.90
31639;DHT22;18248;51.522;7.020;2024-02-16T04:34:55;13.90;99.90
31639;DHT22;18248;51.522;7.020;2024-02-16T04:37:57;13.90;99.90
31639;DHT22;18248;51.522;7.020;2024-02-16T04:40:55;13.90;99.90
31639;DHT22;18248;51.522;7.020;2024-02-16T04:43:54;13.80;99.90
31639;DHT22;18248;51.522;7.020;2024-02-16T04:46:52;13.80;99.90
31639;DHT22;18248;51.522;7.020;2024-02-16T04:49:51;13.80;99.90
31639;DHT22;18248;51.522;7.020;2024-02-16T04:52:50;13.80;99.90
31639;DHT22;18248;51.522;7.020;2024-02-16T04:55:48;13.80;99.90
31639;DHT22;18248;51.522;7.020;2024-02-16T04:58:47;13.80;99.90
31639;DHT22;18248;51.522;7.020;2024-02-16T05:01:46;13.70;99.90
31639;DHT22;18248;51.522;7.020;2024-02-16T05:04:45;13.70;99.90
31639;DHT22;18248;51.522;7.020;2024-02-16T05:07:43;13.70;99.90
31639;DHT22;18248;51.522;7.020;2024-02-16T05:10:44;13.80;99.90
31639;DHT22;18248;51.522;7.020;2024-02-16T05:13:43;13.80;99.90
31639;DHT22;18248;51.522;7.020;2024-02-16T05:16:44;13.70;99.90
31639;DHT22;18248;51.522;7.020;2024-02-16T05:19:42;13.70;99.90
31639;DHT22;18248;51.522;7.020;2024-02-16T05:22:44;13.70;99.90
31639;DHT22;18248;51.522;7.020;2024-02-16T05:25:44;13.70;99.90
31639;DHT22;18248;51.522;7.020;2024-02-16T05:28:43;13.60;99.90
31639;DHT22;18248;51.522;7.020;2024-02-16T05:31:41;13.70;99.90
31639;DHT22;18248;51.522;7.020;2024-02-16T05:34:40;13.70;99.90
31639;DHT22;18248;51.522;7.020;2024-02-16T05:37:39;13.80;99.90
31639;DHT22;18248;51.522;7.020;2024-02-16T05:40:37;13.80;99.90
31639;DHT22;18248;51.522;7.020;2024-02-16T05:43:51;13.80;99.90
31639;DHT22;18248;51.522;7.020;2024-02-16T05:46:50;13.90;99.90
31639;DHT22;18248;51.522;7.020;2024-02-16T05:49:48;13.80;99.90
31639;DHT22;18248;51.522;7.020;2024-02-16T05:52:47;13.90;99.90
31639;DHT22;18248;51.522;7.020;2024-02-16T05:55:46;13.90;99.90
31639;DHT22;18248;51.522;7.020;2024-02-16T05:58:46;13.90;99.90
31639;DHT22;18248;51.522;7.020;2024-02-16T06:01:47;13.90;99.90
31639;DHT22;18248;51.522;7.020;2024-02-16T06:04:46;13.90;99.90
31639;DHT22;18248;51.522;7.020;2024-02-16T06:07:44;14.00;99.90
31639;DHT22;18248;51.522;7.020;2024-02-16T06:10:43;13.90;99.90
31639;DHT22;18248;51.522;7.020;2024-02-16T06:13:41;13.90;99.90
31639;DHT22;18248;51.522;7.020;2024-02-16T06:16:40;13.90;99.90
31639;DHT22;18248;51.522;7.020;2024-02-16T06:19:43;13.90;99.90
31639;DHT22;18248;51.522;7.020;2024-02-16T06:22:42;13.90;99.90
31639;DHT22;18248;51.522;7.020;2024-02-16T06:25:40;13.90;99.90
31639;DHT22;18248;51.522;7.020;2024-02-16T06:28:40;13.80;99.90
31639;DHT22;18248;51.522;7.020;2024-02-16T06:31:38;13.90;99.90
31639;DHT22;18248;51.522;7.020;2024-02-16T06:34:37;13.90;99.90
31639;DHT22;18248;51.522;7.020;2024-02-16T06:37:35;13.90;99.90
31639;DHT22;18248;51.522;7.020;2024-02-16T06:40:35;14.00;99.90
31639;DHT22;18248;51.522;7.020;2024-02-16T06:43:34;13.90;99.90
31639;DHT22;18248;51.522;7.020;2024-02-16T06:46:32;14.00;99.90
31639;DHT22;18248;51.522;7.020;2024-02-16T06:49:31;14.10;99.90
31639;DHT22;18248;51.522;7.020;2024-02-16T06:52:30;14.10;99.90
31639;DHT22;18248;51.522;7.020;2024-02-16T06:55:28;14.10;99.90
31639;DHT22;18248;51.522;7.020;2024-02-16T06:58:27;14.10;99.90
31639;DHT22;18248;51.522;7.020;2024-02-16T07:01:25;14.10;99.90
31639;DHT22;18248;51.522;7.020;2024-02-16T07:04:27;14.10;99.90
31639;DHT22;18248;51.522;7.020;2024-02-16T07:07:26;14.10;99.90
31639;DHT22;18248;51.522;7.020;2024-02-16T07:10:25;14.10;99.90
31639;DHT22;18248;51.522;7.020;2024-02-16T07:13:23;14.10;99.90
31639;DHT22;18248;51.522;7.020;2024-02-16T07:16:22;14.20;99.90
31639;DHT22;18248;51.522;7.020;2024-02-16T07:19:21;14.20;99.90
31639;DHT22;18248;51.522;7.020;2024-02-16T07:22:19;14.20;99.90
31639;DHT22;18248;51.522;7.020;2024-02-16T07:25:18;14.30;99.90
31639;DHT22;18248;51.522;7.020;2024-02-16T07:28:16;14.30;99.90
31639;DHT22;18248;51.522;7.020;2024-02-16T07:31:15;14.40;99.90
31639;DHT22;18248;51.522;7.020;2024-02-16T07:34:14;14.40;99.90
31639;DHT22;18248;51.522;7.020;2024-02-16T07:37:13;14.50;99.90
31639;DHT22;18248;51.522;7.020;2024-02-16T07:40:11;14.50;99.90
31639;DHT22;18248;51.522;7.020;2024-02-16T07:43:10;14.60;99.90
31639;DHT22;18248;51.522;7.020;2024-02-16T07:46:09;14.70;99.90
31639;DHT22;18248;51.522;7.020;2024-02-16T07:49:07;14.70;99.90
31639;DHT22;18248;51.522;7.020;2024-02-16T07:52:08;14.70;99.90
31639;DHT22;18248;51.522;7.020;2024-02-16T07:55:07;14.80;99.90
31639;DHT22;18248;51.522;7.020;2024-02-16T07:58:06;14.90;99.90
31639;DHT22;18248;51.522;7.020;2024-02-16T08:01:04;14.90;99.90
31639;DHT22;18248;51.522;7.020;2024-02-16T08:04:04;15.00;99.90
31639;DHT22;18248;51.522;7.020;2024-02-16T08:07:03;15.10;99.90
31639;DHT22;18248;51.522;7.020;2024-02-16T08:10:01;15.10;99.90
31639;DHT22;18248;51.522;7.020;2024-02-16T08:13:00;15.20;99.90
31639;DHT22;18248;51.522;7.020;2024-02-16T08:15:59;15.20;99.90
31639;DHT22;18248;51.522;7.020;2024-02-16T08:18:57;15.30;99.90
31639;DHT22;18248;51.522;7.020;2024-02-16T08:21:56;15.30;99.90
31639;DHT22;18248;51.522;7.020;2024-02-16T08:24:55;15.30;99.90
31639;DHT22;18248;51.522;7.020;2024-02-16T08:27:53;15.30;99.90
31639;DHT22;18248;51.522;7.020;2024-02-16T08:30:52;15.30;99.90
31639;DHT22;18248;51.522;7.020;2024-02-16T08:33:50;15.30;99.90
31639;DHT22;18248;51.522;7.020;2024-02-16T08:36:49;15.30;99.90
31639;DHT22;18248;51.522;7.020;2024-02-16T08:39:48;15.30;99.90
31639;DHT22;18248;51.522;7.020;2024-02-16T08:42:46;15.30;99.90
31639;DHT22;18248;51.522;7.020;2024-02-16T08:45:45;15.30;99.90
31639;DHT22;18248;51.522;7.020;2024-02-16T08:48:45;15.30;99.90
31639;DHT22;18248;51.522;7.020;2024-02-16T08:51:43;15.40;99.90
31639;DHT22;18248;51.522;7.020;2024-02-16T08:54:43;15.40;99.90
31639;DHT22;18248;51.522;7.020;2024-02-16T08:57:42;15.40;99.90
31639;DHT22;18248;51.522;7.020;2024-02-16T09:00:40;15.50;99.90
31639;DHT22;18248;51.522;7.020;2024-02-16T09:03:39;15.50;99.90
31639;DHT22;18248;51.522;7.020;2024-02-16T09:06:38;15.50;99.90
31639;DHT22;18248;51.522;7.020;2024-02-16T09:09:37;15.60;99.90
31639;DHT22;18248;51.522;7.020;2024-02-16T09:12:35;15.60;99.90
31639;DHT22;18248;51.522;7.020;2024-02-16T09:15:34;15.60;99.90
31639;DHT22;18248;51.522;7.020;2024-02-16T09:18:33;15.70;99.90
31639;DHT22;18248;51.522;7.020;2024-02-16T09:21:31;15.70;99.90
31639;DHT22;18248;51.522;7.020;2024-02-16T09:24:30;15.70;99.90
31639;DHT22;18248;51.522;7.020;2024-02-16T09:27:29;15.80;99.90
31639;DHT22;18248;51.522;7.020;2024-02-16T09:30:27;15.80;99.90
31639;DHT22;18248;51.522;7.020;2024-02-16T09:33:26;15.80;99.90
31639;DHT22;18248;51.522;7.020;2024-02-16T09:36:25;15.90;99.90
31639;DHT22;18248;51.522;7.020;2024-02-16T09:39:24;15.90;99.90
31639;DHT22;18248;51.522;7.020;2024-02-16T09:42:26;16.00;99.90
31639;DHT22;18248;51.522;7.020;2024-02-16T09:45:25;16.00;99.90
31639;DHT22;18248;51.522;7.020;2024-02-16T09:48:26;16.00;99.90
31639;DHT22;18248;51.522;7.020;2024-02-16T09:51:25;16.00;99.90
31639;DHT22;18248;51.522;7.020;2024-02-16T09:54:24;16.10;99.90
31639;DHT22;18248;51.522;7.020;2024-02-16T09:57:23;16.10;99.90
31639;DHT22;18248;51.522;7.020;2024-02-16T10:00:22;16.10;99.90
31639;DHT22;18248;51.522;7.020;2024-02-16T10:03:24;16.20;99.90
31639;DHT22;18248;51.522;7.020;2024-02-16T10:06:24;16.20;99.90
31639;DHT22;18248;51.522;7.020;2024-02-16T10:09:26;16.20;99.90
31639;DHT22;18248;51.522;7.020;2024-02-16T10:12:25;16.30;99.90
31639;DHT22;18248;51.522;7.020;2024-02-16T10:15:23;16.30;99.90
31639;DHT22;18248;51.522;7.020;2024-02-16T10:18:27;16.30;99.90
31639;DHT22;18248;51.522;7.020;2024-02-16T10:21:27;16.30;99.90
31639;DHT22;18248;51.522;7.020;2024-02-16T10:24:26;16.40;99.90
31639;DHT22;18248;51.522;7.020;2024-02-16T10:27:24;16.40;99.90
31639;DHT22;18248;51.522;7.020;2024-02-16T10:30:26;16.30;99.90
31639;DHT22;18248;51.522;7.020;2024-02-16T10:33:31;16.30;99.90
31639;DHT22;18248;51.522;7.020;2024-02-16T10:36:32;16.30;99.90
31639;DHT22;18248;51.522;7.020;2024-02-16T10:39:31;16.30;99.90
31639;DHT22;18248;51.522;7.020;2024-02-16T10:42:31;16.30;99.90
31639;DHT22;18248;51.522;7.020;2024-02-16T10:45:34;16.30;99.90
31639;DHT22;18248;51.522;7.020;2024-02-16T10:48:33;16.30;99.90
31639;DHT22;18248;51.522;7.020;2024-02-16T10:51:42;16.40;99.90
31639;DHT22;18248;51.522;7.020;2024-02-16T10:54:42;16.40;99.90
31639;DHT22;18248;51.522;7.020;2024-02-16T10:57:41;16.40;99.90
31639;DHT22;18248;51.522;7.020;2024-02-16T11:00:50;16.40;99.90
31639;DHT22;18248;51.522;7.020;2024-02-16T11:03:49;16.40;99.90
31639;DHT22;18248;51.522;7.020;2024-02-16T11:06:55;16.40;99.90
31639;DHT22;18248;51.522;7.020;2024-02-16T11:09:59;16.40;99.90
31639;DHT22;18248;51.522;7.020;2024-02-16T11:13:04;16.40;99.90
31639;DHT22;18248;51.522;7.020;2024-02-16T11:16:06;16.30;99.90
31639;DHT22;18248;51.522;7.020;2024-02-16T11:19:07;16.40;99.90
31639;DHT22;18248;51.522;7.020;2024-02-16T11:22:06;16.40;99.90
31639;DHT22;18248;51.522;7.020;2024-02-16T11:25:07;16.30;99.90
31639;DHT22;18248;51.522;7.020;2024-02-16T11:28:07;16.40;99.90
31639;DHT22;18248;51.522;7.020;2024-02-16T11:31:06;16.40;99.90
31639;DHT22;18248;51.522;7.020;2024-02-16T11:34:05;16.30;99.90
31639;DHT22;18248;51.522;7.020;2024-02-16T11:37:04;16.30;99.90
31639;DHT22;18248;51.522;7.020;2024-02-16T11:40:06;16.30;99.90
31639;DHT22;18248;51.522;7.020;2024-02-16T11:43:06;16.30;99.90
31639;DHT22;18248;51.522;7.020;2024-02-16T11:46:15;16.20;99.90
31639;DHT22;18248;51.522;7.020;2024-02-16T11:49:17;16.20;99.90
31639;DHT22;18248;51.522;7.020;2024-02-16T11:52:15;16.20;99.90
31639;DHT22;18248;51.522;7.020;2024-02-16T11:55:14;16.10;99.90
31639;DHT22;18248;51.522;7.020;2024-02-16T11:58:15;16.10;99.90
31639;DHT22;18248;51.522;7.020;2024-02-16T12:01:15;16.20;99.90
31639;DHT22;18248;51.522;7.020;2024-02-16T12:04:40;16.10;99.90
31639;DHT22;18248;51.522;7.020;2024-02-16T12:07:39;16.10;99.90
31639;DHT22;18248;51.522;7.020;2024-02-16T12:10:42;16.10;99.90
31639;DHT22;18248;51.522;7.020;2024-02-16T12:13:41;16.10;99.90
31639;DHT22;18248;51.522;7.020;2024-02-16T12:16:39;16.10;99.90
31639;DHT22;18248;51.522;7.020;2024-02-16T12:19:46;16.10;99.90
31639;DHT22;18248;51.522;7.020;2024-02-16T12:22:45;16.10;99.90
31639;DHT22;18248;51.522;7.020;2024-02-16T12:25:43;16.10;99.90
31639;DHT22;18248;51.522;7.020;2024-02-16T12:28:41;16.10;99.90
31639;DHT22;18248;51.522;7.020;2024-02-16T12:31:41;16.10;99.90
31639;DHT22;18248;51.522;7.020;2024-02-16T12:34:40;16.10;99.90
31639;DHT22;18248;51.522;7.020;2024-02-16T12:37:39;16.00;99.90
31639;DHT22;18248;51.522;7.020;2024-02-16T12:40:38;16.00;99.90
31639;DHT22;18248;51.522;7.020;2024-02-16T12:43:36;16.00;99.90
31639;DHT22;18248;51.522;7.020;2024-02-16T12:46:35;16.00;99.90
31639;DHT22;18248;51.522;7.020;2024-02-16T12:49:33;16.00;99.90
31639;DHT22;18248;51.522;7.020;2024-02-16T12:52:34;16.00;99.90
31639;DHT22;18248;51.522;7.020;2024-02-16T12:55:35;16.00;99.90
31639;DHT22;18248;51.522;7.020;2024-02-16T12:58:35;16.00;99.90
31639;DHT22;18248;51.522;7.020;2024-02-16T13:01:34;16.00;99.90
31639;DHT22;18248;51.522;7.020;2024-02-16T13:04:32;15.90;99.90
31639;DHT22;18248;51.522;7.020;2024-02-16T13:07:31;15.90;99.90
31639;DHT22;18248;51.522;7.020;2024-02-16T13:10:30;15.90;99.90
31639;DHT22;18248;51.522;7.020;2024-02-16T13:13:29;15.90;99.90
31639;DHT22;18248;51.522;7.020;2024-02-16T13:16:27;15.90;99.90
31639;DHT22;18248;51.522;7.020;2024-02-16T13:19:26;15.90;99.90
31639;DHT22;18248;51.522;7.020;2024-02-16T13:22:24;15.80;99.90
31639;DHT22;18248;51.522;7.020;2024-02-16T13:25:23;15.90;99.90
31639;DHT22;18248;51.522;7.020;2024-02-16T13:28:21;15.90;99.90
31639;DHT22;18248;51.522;7.020;2024-02-16T13:31:20;15.80;99.90
31639;DHT22;18248;51.522;7.020;2024-02-16T13:34:19;15.80;99.90
31639;DHT22;18248;51.522;7.020;2024-02-16T13:37:17;15.80;99.90
31639;DHT22;18248;51.522;7.020;2024-02-16T13:40:16;15.80;99.90
31639;DHT22;18248;51.522;7.020;2024-02-16T13:43:16;15.70;99.90
31639;DHT22;18248;51.522;7.020;2024-02-16T13:46:15;15.70;99.90
31639;DHT22;18248;51.522;7.020;2024-02-16T13:49:13;15.60;99.90
31639;DHT22;18248;51.522;7.020;2024-02-16T13:52:15;15.50;99.90
31639;DHT22;18248;51.522;7.020;2024-02-16T13:55:14;15.50;99.90
31639;DHT22;18248;51.522;7.020;2024-02-16T13:58:12;15.40;99.90
31639;DHT22;18248;51.522;7.020;2024-02-16T14:01:11;15.40;99.90
31639;DHT22;18248;51.522;7.020;2024-02-16T14:04:09;15.30;99.90
31639;DHT22;18248;51.522;7.020;2024-02-16T14:07:08;15.30;99.90
31639;DHT22;18248;51.522;7.020;2024-02-16T14:10:08;15.30;99.90
31639;DHT22;18248;51.522;7.020;2024-02-16T14:13:07;15.20;99.90
31639;DHT22;18248;51.522;7.020;2024-02-16T14:16:05;15.20;99.90
31639;DHT22;18248;51.522;7.020;2024-02-16T14:19:04;15.20;99.90
31639;DHT22;18248;51.522;7.020;2024-02-16T14:22:03;15.10;99.90
31639;DHT22;18248;51.522;7.020;2024-02-16T14:25:05;15.10;99.90
31639;DHT22;18248;51.522;7.020;2024-02-16T14:28:04;15.10;99.90
31639;DHT22;18248;51.522;7.020;2024-02-16T14:31:03;15.00;99.90
31639;DHT22;18248;51.522;7.020;2024-02-16T14:34:01;15.00;99.90
31639;DHT22;18248;51.522;7.020;2024-02-16T14:37:00;15.00;99.90
31639;DHT22;18248;51.522;7.020;2024-02-16T14:39:59;14.90;99.90
31639;DHT22;18248;51.522;7.020;2024-02-16T14:42:58;14.90;99.90
31639;DHT22;18248;51.522;7.020;2024-02-16T14:46:00;14.90;99.90
31639;DHT22;18248;51.522;7.020;2024-02-16T14:48:59;14.90;99.90
31639;DHT22;18248;51.522;7.020;2024-02-16T14:51:57;14.90;99.90
31639;DHT22;18248;51.522;7.020;2024-02-16T14:54:56;14.90;99.90
31639;DHT22;18248;51.522;7.020;2024-02-16T14:57:55;14.80;99.90
31639;DHT22;18248;51.522;7.020;2024-02-16T15:00:53;14.80;99.90
31639;DHT22;18248;51.522;7.020;2024-02-16T15:03:52;14.80;99.90
31639;DHT22;18248;51.522;7.020;2024-02-16T15:06:51;14.80;99.90
31639;DHT22;18248;51.522;7.020;2024-02-16T15:09:49;14.70;99.90
31639;DHT22;18248;51.522;7.020;2024-02-16T15:12:48;14.70;99.90
31639;DHT22;18248;51.522;7.020;2024-02-16T15:15:46;14.60;99.90
31639;DHT22;18248;51.522;7.020;2024-02-16T15:18:45;14.60;99.90
31639;DHT22;18248;51.522;7.020;2024-02-16T15:21:44;14.60;99.90
31639;DHT22;18248;51.522;7.020;2024-02-16T15:24:43;14.50;99.90
31639;DHT22;18248;51.522;7.020;2024-02-16T15:27:41;14.50;99.90
31639;DHT22;18248;51.522;7.020;2024-02-16T15:30:40;14.50;99.90
31639;DHT22;18248;51.522;7.020;2024-02-16T15:33:38;14.60;99.90
31639;DHT22;18248;51.522;7.020;2024-02-16T15:36:37;14.60;99.90
31639;DHT22;18248;51.522;7.020;2024-02-16T15:39:35;14.50;99.90
31639;DHT22;18248;51.522;7.020;2024-02-16T15:42:34;14.50;99.90
31639;DHT22;18248;51.522;7.020;2024-02-16T15:45:33;14.50;99.90
31639;DHT22;18248;51.522;7.020;2024-02-16T15:48:40;14.50;99.90
31639;DHT22;18248;51.522;7.020;2024-02-16T15:51:38;14.50;99.90
31639;DHT22;18248;51.522;7.020;2024-02-16T15:54:37;14.40;99.90
31639;DHT22;18248;51.522;7.020;2024-02-16T15:57:35;14.40;99.90
31639;DHT22;18248;51.522;7.020;2024-02-16T16:00:34;14.40;99.90
31639;DHT22;18248;51.522;7.020;2024-02-16T16:03:33;14.40;99.90
31639;DHT22;18248;51.522;7.020;2024-02-16T16:06:31;14.40;99.90
31639;DHT22;18248;51.522;7.020;2024-02-16T16:09:30;14.30;99.90
31639;DHT22;18248;51.522;7.020;2024-02-16T16:12:29;14.30;99.90
31639;DHT22;18248;51.522;7.020;2024-02-16T16:15:27;14.30;99.90
31639;DHT22;18248;51.522;7.020;2024-02-16T16:18:26;14.30;99.90
31639;DHT22;18248;51.522;7.020;2024-02-16T16:21:24;14.30;99.90
31639;DHT22;18248;51.522;7.020;2024-02-16T16:24:23;14.30;99.90
31639;DHT22;18248;51.522;7.020;2024-02-16T16:27:21;14.20;99.90
31639;DHT22;18248;51.522;7.020;2024-02-16T16:30:20;14.20;99.90
31639;DHT22;18248;51.522;7.020;2024-02-16T16:33:19;14.30;99.90
31639;DHT22;18248;51.522;7.020;2024-02-16T16:36:17;14.20;99.90
31639;DHT22;18248;51.522;7.020;2024-02-16T16:39:18;14.20;99.90
31639;DHT22;18248;51.522;7.020;2024-02-16T16:42:16;14.20;99.90
31639;DHT22;18248;51.522;7.020;2024-02-16T16:45:15;14.20;99.90
31639;DHT22;18248;51.522;7.020;2024-02-16T16:48:13;14.20;99.90
31639;DHT22;18248;51.522;7.020;2024-02-16T16:51:12;14.10;99.90
31639;DHT22;18248;51.522;7.020;2024-02-16T16:54:12;14.10;99.90
31639;DHT22;18248;51.522;7.020;2024-02-16T16:57:10;14.10;99.90
31639;DHT22;18248;51.522;7.020;2024-02-16T17:00:09;14.10;99.90
31639;DHT22;18248;51.522;7.020;2024-02-16T17:03:08;14.00;99.90
31639;DHT22;18248;51.522;7.020;2024-02-16T17:06:06;14.00;99.90
31639;DHT22;18248;51.522;7.020;2024-02-16T17:09:05;14.00;99.90
31639;DHT22;18248;51.522;7.020;2024-02-16T17:12:07;13.90;99.90
31639;DHT22;18248;51.522;7.020;2024-02-16T17:15:05;13.90;99.90
31639;DHT22;18248;51.522;7.020;2024-02-16T17:18:04;13.90;99.90
31639;DHT22;18248;51.522;7.020;2024-02-16T17:21:03;13.90;99.90
31639;DHT22;18248;51.522;7.020;2024-02-16T17:24:03;13.90;99.90
31639;DHT22;18248;51.522;7.020;2024-02-16T17:27:02;13.90;99.90
31639;DHT22;18248;51.522;7.020;2024-02-16T17:30:02;13.90;99.90
31639;DHT22;18248;51.522;7.020;2024-02-16T17:33:01;13.80;99.90
31639;DHT22;18248;51.522;7.020;2024-02-16T17:36:00;13.80;99.90
31639;DHT22;18248;51.522;7.020;2024-02-16T17:39:00;13.90;99.90
31639;DHT22;18248;51.522;7.020;2024-02-16T17:42:00;13.80;99.90
31639;DHT22;18248;51.522;7.020;2024-02-16T17:44:58;13.80;99.90
31639;DHT22;18248;51.522;7.020;2024-02-16T17:47:58;13.70;99.90
31639;DHT22;18248;51.522;7.020;2024-02-16T17:50:57;13.70;99.90
31639;DHT22;18248;51.522;7.020;2024-02-16T17:53:55;13.70;99.90
31639;DHT22;18248;51.522;7.020;2024-02-16T17:56:54;13.70;99.90
31639;DHT22;18248;51.522;7.020;2024-02-16T17:59:52;13.70;99.90
31639;DHT22;18248;51.522;7.020;2024-02-16T18:02:51;13.60;99.90
31639;DHT22;18248;51.522;7.020;2024-02-16T18:05:51;13.60;99.90
31639;DHT22;18248;51.522;7.020;2024-02-16T18:08:49;13.70;99.90
31639;DHT22;18248;51.522;7.020;2024-02-16T18:11:48;13.70;99.90
31639;DHT22;18248;51.522;7.020;2024-02-16T18:14:46;13.70;99.90
31639;DHT22;18248;51.522;7.020;2024-02-16T18:17:45;13.70;99.90
31639;DHT22;18248;51.522;7.020;2024-02-16T18:20:44;13.70;99.90
31639;DHT22;18248;51.522;7.020;2024-02-16T18:23:42;13.70;99.90
31639;DHT22;18248;51.522;7.020;2024-02-16T18:26:45;13.70;99.90
31639;DHT22;18248;51.522;7.020;2024-02-16T18:29:44;13.70;99.90
31639;DHT22;18248;51.522;7.020;2024-02-16T18:32:42;13.70;99.90
31639;DHT22;18248;51.522;7.020;2024-02-16T18:35:41;13.70;99.90
31639;DHT22;18248;51.522;7.020;2024-02-16T18:38:39;13.70;99.90
31639;DHT22;18248;51.522;7.020;2024-02-16T18:41:41;13.70;99.90
31639;DHT22;18248;51.522;7.020;2024-02-16T18:44:39;13.60;99.90
31639;DHT22;18248;51.522;7.020;2024-02-16T18:47:39;13.60;99.90
31639;DHT22;18248;51.522;7.020;2024-02-16T18:50:37;13.60;99.90